createdAt,value
2017-10-13T00:00:57.465Z,17.13
2017-10-13T00:03:28.496Z,15.27
2017-10-13T00:05:56.677Z,18.57
2017-10-13T00:08:24.841Z,17.97
2017-10-13T00:10:54.632Z,18.37
2017-10-13T00:13:23.160Z,20.67
2017-10-13T00:15:54.945Z,13.60
2017-10-13T00:18:23.829Z,17.60
2017-10-13T00:20:53.045Z,21.50
2017-10-13T00:23:22.511Z,25.40
2017-10-13T00:25:50.646Z,16.10
2017-10-13T00:28:20.458Z,20.83
2017-10-13T00:30:48.660Z,13.40
2017-10-13T00:33:21.844Z,18.23
2017-10-13T00:35:49.994Z,17.07
2017-10-13T00:38:19.937Z,16.33
2017-10-13T00:40:48.078Z,24.73
2017-10-13T00:43:17.296Z,13.20
2017-10-13T00:45:45.443Z,13.30
2017-10-13T00:48:18.979Z,21.73
2017-10-13T00:50:47.139Z,18.97
2017-10-13T00:53:16.209Z,17.00
2017-10-13T00:55:44.377Z,17.40
2017-10-13T00:58:15.940Z,16.70
2017-10-13T01:00:44.099Z,13.33
2017-10-13T01:03:12.249Z,17.93
2017-10-13T01:05:41.731Z,12.93
2017-10-13T01:08:11.478Z,12.07
2017-10-13T01:10:41.725Z,12.30
2017-10-13T01:13:09.878Z,12.03
2017-10-13T01:15:40.982Z,14.20
2017-10-13T01:18:10.508Z,15.73
2017-10-13T01:20:38.637Z,17.63
2017-10-13T01:23:08.508Z,13.03
2017-10-13T01:25:38.989Z,13.23
2017-10-13T01:28:07.665Z,11.60
2017-10-13T01:30:35.774Z,13.70
2017-10-13T01:33:03.933Z,17.50
2017-10-13T01:35:34.395Z,16.07
2017-10-13T01:38:03.695Z,11.17
2017-10-13T01:40:32.577Z,11.80
2017-10-13T01:43:00.702Z,9.00
2017-10-13T01:45:28.826Z,13.23
2017-10-13T01:47:56.993Z,21.40
2017-10-13T01:50:25.105Z,12.60
2017-10-13T01:52:53.241Z,9.50
2017-10-13T01:55:21.795Z,24.87
2017-10-13T01:57:49.924Z,18.73
2017-10-13T02:00:18.052Z,11.97
2017-10-13T02:02:46.218Z,11.00
2017-10-13T02:05:14.884Z,14.10
2017-10-13T02:07:45.458Z,15.93
2017-10-13T02:10:14.339Z,13.50
2017-10-13T02:12:42.940Z,11.10
2017-10-13T02:15:11.068Z,16.57
2017-10-13T02:17:39.186Z,9.60
2017-10-13T02:20:08.098Z,11.60
2017-10-13T02:22:37.409Z,6.87
2017-10-13T02:25:06.918Z,11.40
2017-10-13T02:27:36.930Z,16.17
2017-10-13T02:30:06.411Z,12.90
2017-10-13T02:32:36.406Z,12.53
2017-10-13T02:35:06.056Z,15.20
2017-10-13T02:37:35.221Z,13.73
2017-10-13T02:40:05.530Z,12.97
2017-10-13T02:42:35.730Z,9.20
2017-10-13T02:45:07.059Z,14.20
2017-10-13T02:47:37.349Z,11.50
2017-10-13T02:50:06.256Z,8.80
2017-10-13T02:52:35.233Z,14.97
2017-10-13T02:55:03.367Z,17.83
2017-10-13T02:57:33.513Z,11.50
2017-10-13T03:00:03.822Z,11.97
2017-10-13T03:02:33.253Z,12.13
2017-10-13T03:05:04.140Z,12.27
2017-10-13T03:07:32.253Z,9.50
2017-10-13T03:10:00.397Z,13.33
2017-10-13T03:12:30.450Z,9.07
2017-10-13T03:14:59.824Z,10.80
2017-10-13T03:17:28.439Z,9.70
2017-10-13T03:19:58.668Z,18.63
2017-10-13T03:22:28.375Z,6.13
2017-10-13T03:24:57.669Z,17.17
2017-10-13T03:27:27.169Z,12.67
2017-10-13T03:29:55.291Z,17.73
2017-10-13T03:32:25.891Z,12.53
2017-10-13T03:34:55.815Z,9.23
2017-10-13T03:37:24.685Z,12.77
2017-10-13T03:39:54.351Z,12.17
2017-10-13T03:42:24.216Z,17.50
2017-10-13T03:44:53.240Z,13.50
2017-10-13T03:47:21.360Z,15.33
2017-10-13T03:49:50.577Z,10.73
2017-10-13T03:52:20.946Z,13.87
2017-10-13T03:54:49.157Z,8.10
2017-10-13T03:57:19.613Z,10.80
2017-10-13T03:59:52.408Z,8.50
2017-10-13T04:02:21.379Z,8.13
2017-10-13T04:04:49.500Z,16.37
2017-10-13T04:07:17.649Z,11.90
2017-10-13T04:09:46.518Z,8.13
2017-10-13T04:12:17.142Z,12.30
2017-10-13T04:14:45.760Z,16.80
2017-10-13T04:17:14.825Z,12.73
2017-10-13T04:19:43.713Z,14.13
2017-10-13T04:22:12.619Z,8.40
2017-10-13T04:24:44.592Z,11.23
2017-10-13T04:27:13.937Z,13.70
2017-10-13T04:29:42.066Z,12.50
2017-10-13T04:32:10.949Z,10.03
2017-10-13T04:34:39.085Z,12.93
2017-10-13T04:37:10.300Z,19.43
2017-10-13T04:39:38.443Z,13.70
2017-10-13T04:42:06.601Z,8.90
2017-10-13T04:44:37.143Z,6.20
2017-10-13T04:47:06.046Z,8.50
2017-10-13T04:49:35.819Z,10.47
2017-10-13T04:52:03.981Z,10.50
2017-10-13T04:54:32.621Z,10.17
2017-10-13T04:57:01.203Z,13.93
2017-10-13T04:59:30.019Z,23.03
2017-10-13T05:01:59.170Z,17.43
2017-10-13T05:04:27.770Z,13.43
2017-10-13T05:06:55.946Z,13.53
2017-10-13T05:09:24.080Z,17.00
2017-10-13T05:11:52.232Z,12.90
2017-10-13T05:14:22.037Z,9.20
2017-10-13T05:16:50.207Z,15.33
2017-10-13T05:19:19.558Z,10.27
2017-10-13T05:21:52.332Z,14.53
2017-10-13T05:24:21.302Z,15.93
2017-10-13T05:26:49.469Z,9.37
2017-10-13T05:29:17.595Z,9.80
2017-10-13T05:31:45.737Z,11.53
2017-10-13T05:34:14.321Z,10.70
2017-10-13T05:36:45.871Z,14.20
2017-10-13T05:39:14.004Z,13.50
2017-10-13T05:41:42.147Z,14.87
2017-10-13T05:44:11.172Z,14.77
2017-10-13T05:46:39.333Z,10.83
2017-10-13T05:49:07.453Z,11.37
2017-10-13T05:51:37.087Z,13.27
2017-10-13T05:54:05.282Z,7.43
2017-10-13T05:56:33.400Z,16.03
2017-10-13T05:59:04.274Z,17.10
2017-10-13T06:01:33.289Z,20.33
2017-10-13T06:04:02.731Z,13.87
2017-10-13T06:06:30.836Z,13.30
2017-10-13T06:09:01.515Z,11.80
2017-10-13T06:11:29.659Z,18.77
2017-10-13T06:13:57.815Z,14.43
2017-10-13T06:16:26.419Z,10.73
2017-10-13T06:18:54.562Z,13.27
2017-10-13T06:21:22.683Z,7.20
2017-10-13T06:23:50.812Z,12.33
2017-10-13T06:26:19.900Z,14.63
2017-10-13T06:28:48.032Z,15.13
2017-10-13T06:31:16.145Z,14.63
2017-10-13T06:33:44.288Z,9.43
2017-10-13T06:36:12.997Z,14.83
2017-10-13T06:38:41.952Z,16.40
2017-10-13T06:41:10.067Z,17.87
2017-10-13T06:43:40.637Z,16.33
2017-10-13T06:46:08.754Z,10.27
2017-10-13T06:48:36.994Z,14.73
2017-10-13T06:51:05.153Z,13.93
2017-10-13T06:53:34.072Z,10.67
2017-10-13T06:56:02.211Z,14.00
2017-10-13T06:58:31.418Z,10.17
2017-10-13T07:01:00.307Z,15.03
2017-10-13T07:03:29.198Z,13.03
2017-10-13T07:05:58.075Z,16.43
2017-10-13T07:08:27.489Z,10.03
2017-10-13T07:10:56.374Z,11.80
2017-10-13T07:13:26.781Z,10.47
2017-10-13T07:15:54.901Z,16.47
2017-10-13T07:18:26.128Z,14.93
2017-10-13T07:20:55.015Z,22.43
2017-10-13T07:23:24.347Z,14.40
2017-10-13T07:25:52.451Z,9.90
2017-10-13T07:28:20.583Z,10.20
2017-10-13T07:30:49.711Z,13.90
2017-10-13T07:33:17.841Z,13.60
2017-10-13T07:35:46.732Z,22.63
2017-10-13T07:38:16.251Z,18.33
2017-10-13T07:40:45.234Z,10.83
2017-10-13T07:43:14.128Z,14.40
2017-10-13T07:45:42.255Z,17.33
2017-10-13T07:48:10.387Z,10.97
2017-10-13T07:50:38.538Z,15.50
2017-10-13T07:53:07.919Z,14.70
2017-10-13T07:55:36.065Z,20.13
2017-10-13T07:58:05.120Z,14.63
2017-10-13T08:00:34.749Z,10.03
2017-10-13T08:03:02.854Z,11.93
2017-10-13T08:05:31.409Z,12.53
2017-10-13T08:07:59.540Z,18.73
2017-10-13T08:10:28.432Z,13.00
2017-10-13T08:12:57.331Z,11.40
2017-10-13T08:15:26.406Z,15.20
2017-10-13T08:17:55.307Z,12.37
2017-10-13T08:20:23.447Z,10.13
2017-10-13T08:22:51.552Z,13.60
2017-10-13T08:25:20.437Z,13.77
2017-10-13T08:27:48.584Z,11.37
2017-10-13T08:30:16.765Z,12.97
2017-10-13T08:32:45.685Z,13.30
2017-10-13T08:35:14.572Z,19.93
2017-10-13T08:37:43.508Z,24.10
2017-10-13T08:40:11.682Z,11.17
2017-10-13T08:42:39.825Z,10.93
2017-10-13T08:45:08.698Z,15.97
2017-10-13T08:47:37.615Z,14.00
2017-10-13T08:50:05.731Z,11.13
2017-10-13T08:52:33.868Z,16.47
2017-10-13T08:55:01.988Z,10.30
2017-10-13T08:57:30.141Z,10.98
2017-10-13T08:59:58.259Z,21.83
2017-10-13T09:02:27.494Z,14.53
2017-10-13T09:04:56.763Z,14.50
2017-10-13T09:07:25.013Z,15.67
2017-10-13T09:09:53.121Z,15.07
2017-10-13T09:12:22.024Z,24.77
2017-10-13T09:14:50.145Z,13.53
2017-10-13T09:17:19.332Z,14.40
2017-10-13T09:19:47.446Z,14.80
2017-10-13T09:22:16.368Z,22.67
2017-10-13T09:24:44.511Z,11.53
2017-10-13T09:27:12.644Z,18.60
2017-10-13T09:29:40.766Z,16.30
2017-10-13T09:32:09.646Z,18.53
2017-10-13T09:34:37.890Z,17.50
2017-10-13T09:37:05.999Z,18.93
2017-10-13T09:39:35.778Z,11.67
2017-10-13T09:42:03.969Z,20.33
2017-10-13T09:44:32.100Z,19.00
2017-10-13T09:47:00.499Z,11.23
2017-10-13T09:49:28.642Z,14.40
2017-10-13T09:51:56.739Z,17.10
2017-10-13T09:54:24.880Z,14.37
2017-10-13T09:56:53.001Z,15.13
2017-10-13T09:59:22.144Z,14.00
2017-10-13T10:01:56.531Z,19.30
2017-10-13T10:04:24.657Z,19.53
2017-10-13T10:06:52.779Z,17.63
2017-10-13T10:09:21.349Z,19.63
2017-10-13T10:11:49.458Z,7.57
2017-10-13T10:14:18.355Z,16.87
2017-10-13T10:16:47.233Z,14.67
2017-10-13T10:19:22.361Z,14.90
2017-10-13T10:21:52.112Z,14.07
2017-10-13T10:24:20.249Z,17.93
2017-10-13T10:26:48.359Z,14.67
2017-10-13T10:29:16.667Z,11.17
2017-10-13T10:31:45.604Z,11.83
2017-10-13T10:34:14.529Z,12.40
2017-10-13T10:36:42.652Z,12.13
2017-10-13T10:39:10.771Z,14.77
2017-10-13T10:41:38.916Z,12.00
2017-10-13T10:44:07.807Z,13.47
2017-10-13T10:46:36.710Z,14.40
2017-10-13T10:49:04.825Z,16.10
2017-10-13T10:51:33.841Z,17.90
2017-10-13T10:54:02.013Z,16.17
2017-10-13T10:56:30.955Z,18.97
2017-10-13T10:59:00.347Z,21.87
2017-10-13T11:01:29.448Z,11.90
2017-10-13T11:03:57.632Z,13.47
2017-10-13T11:06:25.767Z,13.70
2017-10-13T11:08:53.887Z,16.50
2017-10-13T11:11:22.020Z,12.90
2017-10-13T11:13:50.887Z,17.30
2017-10-13T11:16:19.048Z,16.97
2017-10-13T11:18:47.164Z,14.40
2017-10-13T11:21:16.069Z,15.77
2017-10-13T11:23:44.177Z,11.97
2017-10-13T11:26:12.318Z,13.70
2017-10-13T11:28:40.434Z,19.07
2017-10-13T11:31:09.327Z,9.43
2017-10-13T11:33:37.451Z,16.40
2017-10-13T11:36:05.583Z,15.53
2017-10-13T11:38:33.701Z,14.87
2017-10-13T11:41:01.839Z,19.37
2017-10-13T11:43:29.968Z,19.60
2017-10-13T11:45:58.114Z,20.70
2017-10-13T11:48:26.225Z,12.93
2017-10-13T11:50:54.355Z,16.47
2017-10-13T11:53:22.467Z,12.30
2017-10-13T11:55:50.605Z,16.03
2017-10-13T11:58:18.724Z,10.53
2017-10-13T12:00:46.866Z,15.87
2017-10-13T12:03:14.968Z,15.00
2017-10-13T12:05:43.130Z,16.53
2017-10-13T12:08:11.231Z,11.43
2017-10-13T12:10:39.382Z,11.03
2017-10-13T12:13:07.502Z,11.40
2017-10-13T12:15:37.981Z,11.20
2017-10-13T12:18:06.128Z,9.37
2017-10-13T12:20:34.249Z,16.57
2017-10-13T12:23:02.385Z,15.07
2017-10-13T12:25:30.491Z,23.40
2017-10-13T12:27:58.621Z,15.10
2017-10-13T12:30:26.732Z,15.20
2017-10-13T12:32:54.870Z,14.37
2017-10-13T12:35:22.980Z,12.97
2017-10-13T12:37:51.116Z,16.97
2017-10-13T12:40:19.235Z,25.03
2017-10-13T12:42:48.140Z,16.10
2017-10-13T12:45:16.273Z,14.43
2017-10-13T12:47:44.426Z,12.90
2017-10-13T12:50:13.314Z,11.10
2017-10-13T12:52:42.211Z,11.90
2017-10-13T12:55:10.327Z,19.13
2017-10-13T12:57:38.466Z,15.50
2017-10-13T13:00:06.572Z,14.70
2017-10-13T13:02:34.729Z,16.60
2017-10-13T13:05:05.216Z,17.80
2017-10-13T13:07:33.362Z,15.53
2017-10-13T13:10:01.474Z,13.77
2017-10-13T13:12:29.610Z,12.93
2017-10-13T13:14:57.757Z,15.47
2017-10-13T13:17:25.926Z,17.97
2017-10-13T13:19:54.043Z,20.90
2017-10-13T13:22:22.206Z,16.37
2017-10-13T13:24:50.350Z,19.70
2017-10-13T13:27:18.489Z,15.17
2017-10-13T13:29:46.706Z,16.10
2017-10-13T13:32:14.815Z,20.53
2017-10-13T13:34:43.938Z,16.70
2017-10-13T13:37:12.868Z,22.37
2017-10-13T13:39:42.024Z,17.37
2017-10-13T13:42:10.937Z,19.27
2017-10-13T13:44:39.088Z,30.60
2017-10-13T13:47:07.967Z,16.50
2017-10-13T13:49:36.117Z,22.33
2017-10-13T13:52:04.233Z,25.33
2017-10-13T13:54:33.131Z,13.67
2017-10-13T13:57:01.269Z,19.07
2017-10-13T13:59:29.433Z,18.60
2017-10-13T14:04:18.852Z,17.35
2017-10-13T14:06:47.747Z,22.03
2017-10-13T14:09:16.676Z,17.50
2017-10-13T14:11:44.806Z,18.10
2017-10-13T14:14:13.056Z,17.33
2017-10-13T14:16:41.212Z,19.30
2017-10-13T14:19:09.353Z,18.83
2017-10-13T14:21:37.478Z,19.73
2017-10-13T14:24:05.632Z,17.57
2017-10-13T14:26:33.913Z,36.73
2017-10-13T14:29:02.080Z,18.27
2017-10-13T14:31:30.214Z,24.37
2017-10-13T14:33:58.798Z,22.73
2017-10-13T14:36:27.674Z,22.90
2017-10-13T14:38:56.579Z,19.57
2017-10-13T14:41:24.703Z,23.20
2017-10-13T14:43:52.843Z,18.63
2017-10-13T14:46:20.947Z,17.63
2017-10-13T14:48:49.101Z,22.07
2017-10-13T14:51:17.254Z,14.87
2017-10-13T14:53:45.392Z,18.60
2017-10-13T14:56:13.519Z,25.77
2017-10-13T14:58:41.655Z,17.30
2017-10-13T15:01:10.578Z,13.73
2017-10-13T15:03:38.693Z,19.70
2017-10-13T15:06:06.875Z,20.33
2017-10-13T15:08:34.999Z,16.37
2017-10-13T15:11:03.172Z,18.33
2017-10-13T15:13:31.670Z,18.97
2017-10-13T15:15:59.802Z,18.90
2017-10-13T15:18:28.693Z,22.10
2017-10-13T15:20:57.595Z,23.53
2017-10-13T15:23:25.716Z,16.73
2017-10-13T15:25:54.812Z,16.60
2017-10-13T15:28:28.821Z,14.70
2017-10-13T15:31:01.830Z,18.13
2017-10-13T15:33:35.677Z,16.13
2017-10-13T15:36:09.559Z,16.37
2017-10-13T15:38:44.048Z,17.87
2017-10-13T15:41:17.794Z,14.70
2017-10-13T15:43:52.372Z,17.23
2017-10-13T15:46:26.096Z,21.47
2017-10-13T15:48:59.976Z,16.67
2017-10-13T15:51:33.779Z,16.93
2017-10-13T15:54:01.894Z,19.73
2017-10-13T15:56:30.809Z,19.33
2017-10-13T15:58:58.928Z,20.17
2017-10-13T16:01:27.059Z,17.30
2017-10-13T16:03:55.188Z,17.40
2017-10-13T16:06:23.364Z,18.40
2017-10-13T16:08:51.480Z,20.20
2017-10-13T16:11:19.617Z,19.70
2017-10-13T16:13:48.566Z,17.73
2017-10-13T16:16:16.698Z,20.27
2017-10-13T16:18:45.618Z,20.43
2017-10-13T16:21:13.748Z,14.60
2017-10-13T16:23:41.997Z,18.63
2017-10-13T16:26:10.182Z,23.70
2017-10-13T16:28:38.339Z,17.07
2017-10-13T16:31:06.485Z,20.40
2017-10-13T16:33:34.625Z,16.83
2017-10-13T16:36:03.505Z,25.80
2017-10-13T16:38:31.637Z,20.30
2017-10-13T16:40:59.773Z,19.40
2017-10-13T16:43:28.699Z,18.83
2017-10-13T16:45:56.805Z,18.90
2017-10-13T16:48:24.959Z,18.10
2017-10-13T16:50:53.083Z,22.13
2017-10-13T16:53:22.014Z,14.70
2017-10-13T16:55:50.158Z,19.23
2017-10-13T16:58:18.755Z,25.63
2017-10-13T17:00:46.883Z,17.80
2017-10-13T17:03:15.503Z,19.87
2017-10-13T17:05:45.720Z,19.67
2017-10-13T17:08:13.888Z,26.60
2017-10-13T17:10:43.793Z,24.20
2017-10-13T17:13:15.633Z,21.90
2017-10-13T17:15:44.162Z,23.20
2017-10-13T17:18:13.530Z,45.60
2017-10-13T17:20:44.583Z,38.37
2017-10-13T17:23:14.914Z,26.53
2017-10-13T17:25:43.057Z,74.47
2017-10-13T17:28:11.172Z,39.60
2017-10-13T17:30:40.106Z,49.77
2017-10-13T17:33:09.128Z,48.00
2017-10-13T17:35:37.277Z,24.63
2017-10-13T17:38:06.860Z,33.30
2017-10-13T17:40:35.007Z,23.90
2017-10-13T17:43:04.353Z,19.07
2017-10-13T17:45:32.501Z,18.50
2017-10-13T17:48:00.635Z,20.23
2017-10-13T17:50:29.555Z,23.03
2017-10-13T17:52:58.219Z,34.40
2017-10-13T17:55:27.846Z,18.10
2017-10-13T17:57:55.958Z,19.33
2017-10-13T18:00:24.125Z,18.73
2017-10-13T18:02:52.267Z,19.17
2017-10-13T18:05:20.415Z,20.83
2017-10-13T18:07:49.318Z,20.10
2017-10-13T18:10:18.198Z,48.97
2017-10-13T18:12:47.585Z,34.93
2017-10-13T18:15:16.483Z,22.57
2017-10-13T18:17:45.391Z,24.33
2017-10-13T18:20:15.168Z,19.10
2017-10-13T18:22:44.606Z,21.97
2017-10-13T18:25:13.514Z,20.70
2017-10-13T18:27:41.661Z,20.53
2017-10-13T18:30:09.784Z,16.90
2017-10-13T18:32:37.933Z,21.83
2017-10-13T18:35:07.791Z,23.90
2017-10-13T18:37:35.947Z,22.33
2017-10-13T18:40:04.862Z,29.50
2017-10-13T18:42:33.014Z,28.23
2017-10-13T18:45:01.144Z,28.50
2017-10-13T18:47:30.048Z,37.50
2017-10-13T18:49:58.191Z,38.67
2017-10-13T18:52:26.350Z,22.30
2017-10-13T18:54:54.474Z,48.93
2017-10-13T18:57:22.618Z,38.00
2017-10-13T18:59:50.736Z,18.57
2017-10-13T19:02:19.970Z,38.50
2017-10-13T19:04:48.120Z,66.47
2017-10-13T19:07:16.265Z,36.00
2017-10-13T19:09:45.336Z,23.03
2017-10-13T19:12:14.150Z,28.53
2017-10-13T19:14:42.811Z,24.20
2017-10-13T19:17:11.734Z,32.40
2017-10-13T19:19:39.855Z,24.03
2017-10-13T19:22:07.996Z,20.67
2017-10-13T19:24:36.130Z,17.00
2017-10-13T19:27:05.039Z,23.30
2017-10-13T19:29:33.201Z,20.10
2017-10-13T19:32:01.775Z,18.80
2017-10-13T19:34:30.653Z,15.47
2017-10-13T19:36:58.794Z,19.60
2017-10-13T19:39:26.908Z,24.50
2017-10-13T19:41:55.814Z,21.03
2017-10-13T19:44:24.713Z,23.53
2017-10-13T19:46:52.853Z,22.17
2017-10-13T19:49:20.979Z,18.90
2017-10-13T19:51:49.143Z,25.83
2017-10-13T19:54:17.285Z,25.30
2017-10-13T19:56:46.197Z,25.37
2017-10-13T19:59:14.329Z,26.83
2017-10-13T20:01:42.497Z,121.53
2017-10-13T20:04:11.839Z,94.53
2017-10-13T20:06:42.104Z,164.90
2017-10-13T20:09:10.234Z,123.03
2017-10-13T20:11:40.497Z,162.83
2017-10-13T20:14:08.645Z,137.23
2017-10-13T20:16:36.815Z,65.77
2017-10-13T20:19:04.949Z,61.57
2017-10-13T20:21:33.491Z,51.73
2017-10-13T20:24:02.755Z,41.80
2017-10-13T20:26:32.998Z,55.77
2017-10-13T20:29:01.134Z,47.10
2017-10-13T20:31:29.626Z,49.50
2017-10-13T20:33:58.540Z,52.67
2017-10-13T20:36:26.655Z,39.13
2017-10-13T20:38:54.802Z,34.37
2017-10-13T20:41:22.936Z,34.40
2017-10-13T20:43:52.164Z,31.47
2017-10-13T20:46:20.280Z,29.00
2017-10-13T20:48:48.429Z,30.90
2017-10-13T20:51:17.563Z,31.83
2017-10-13T20:53:45.721Z,26.17
2017-10-13T20:56:15.392Z,26.47
2017-10-13T20:58:45.058Z,23.00
2017-10-13T21:01:13.204Z,25.03
2017-10-13T21:03:41.405Z,21.03
2017-10-13T21:06:10.350Z,31.13
2017-10-13T21:08:38.524Z,25.33
2017-10-13T21:11:06.641Z,21.53
2017-10-13T21:13:34.796Z,20.87
2017-10-13T21:16:04.262Z,20.20
2017-10-13T21:18:32.387Z,18.63
2017-10-13T21:21:01.054Z,19.57
2017-10-13T21:23:31.474Z,18.53
2017-10-13T21:26:01.401Z,18.70
2017-10-13T21:28:29.544Z,38.37
2017-10-13T21:30:57.692Z,34.13
2017-10-13T21:33:26.598Z,41.27
2017-10-13T21:35:54.750Z,37.20
2017-10-13T21:38:24.740Z,35.37
2017-10-13T21:40:52.875Z,30.00
2017-10-13T21:43:21.753Z,32.77
2017-10-13T21:45:49.896Z,27.20
2017-10-13T21:48:18.822Z,24.93
2017-10-13T21:50:47.295Z,24.00
2017-10-13T21:53:15.465Z,25.57
2017-10-13T21:55:43.603Z,22.50
2017-10-13T21:58:11.779Z,23.80
2017-10-13T22:00:39.934Z,25.30
2017-10-13T22:03:08.066Z,26.13
2017-10-13T22:05:36.211Z,24.33
2017-10-13T22:08:05.107Z,22.87
2017-10-13T22:10:34.115Z,21.77
2017-10-13T22:13:03.480Z,21.10
2017-10-13T22:15:32.031Z,27.43
2017-10-13T22:18:00.639Z,22.27
2017-10-13T22:20:34.749Z,20.67
2017-10-13T22:23:02.874Z,23.20
2017-10-13T22:25:31.028Z,21.80
2017-10-13T22:27:59.930Z,26.23
2017-10-13T22:30:28.812Z,17.33
2017-10-13T22:32:57.748Z,24.67
2017-10-13T22:35:25.881Z,22.53
2017-10-13T22:37:54.792Z,19.47
2017-10-13T22:40:22.919Z,22.53
2017-10-13T22:42:51.053Z,21.47
2017-10-13T22:45:19.175Z,18.93
2017-10-13T22:47:47.327Z,19.30
2017-10-13T22:50:15.452Z,19.90
2017-10-13T22:52:44.354Z,22.07
2017-10-13T22:55:12.463Z,19.20
2017-10-13T22:57:40.655Z,19.17
2017-10-13T23:00:08.775Z,19.50
2017-10-13T23:02:36.919Z,19.10
2017-10-13T23:05:05.795Z,25.23
2017-10-13T23:07:33.924Z,25.07
2017-10-13T23:10:02.068Z,23.47
2017-10-13T23:12:30.979Z,23.40
2017-10-13T23:14:59.118Z,24.87
2017-10-13T23:17:27.294Z,23.33
2017-10-13T23:19:56.788Z,23.47
2017-10-13T23:22:27.001Z,19.93
2017-10-13T23:24:55.121Z,19.20
2017-10-13T23:27:23.268Z,20.40
2017-10-13T23:29:52.156Z,25.73
2017-10-13T23:32:21.081Z,25.10
2017-10-13T23:34:49.214Z,22.23
2017-10-13T23:37:17.358Z,26.40
2017-10-13T23:39:45.493Z,24.50
2017-10-13T23:42:13.638Z,20.20
2017-10-13T23:44:42.746Z,22.50
2017-10-13T23:47:11.679Z,20.83
2017-10-13T23:49:40.093Z,23.23
2017-10-13T23:52:08.233Z,22.47
2017-10-13T23:54:36.347Z,24.83
2017-10-13T23:57:07.008Z,21.00
2017-10-13T23:59:35.130Z,18.43
